createdAt,value
2023-12-31T00:01:53.303Z,100326.38
2023-12-31T00:04:20.328Z,100324.00
2023-12-31T00:06:47.237Z,100319.31
2023-12-31T00:09:14.086Z,100325.22
2023-12-31T00:11:41.067Z,100319.38
2023-12-31T00:14:08.003Z,100318.66
2023-12-31T00:16:35.032Z,100314.38
2023-12-31T00:19:03.260Z,100319.16
2023-12-31T00:21:30.256Z,100319.59
2023-12-31T00:23:57.254Z,100313.00
2023-12-31T00:26:24.235Z,100302.44
2023-12-31T00:29:03.811Z,100302.44
2023-12-31T00:31:30.841Z,100290.13
2023-12-31T00:33:58.422Z,100299.13
2023-12-31T00:36:26.470Z,100292.31
2023-12-31T00:38:54.822Z,100289.06
2023-12-31T00:41:21.936Z,100272.41
2023-12-31T00:43:48.817Z,100278.22
2023-12-31T00:46:15.984Z,100272.19
2023-12-31T00:48:43.008Z,100268.91
2023-12-31T00:51:09.830Z,100257.88
2023-12-31T00:53:37.663Z,100250.34
2023-12-31T00:56:04.945Z,100258.53
2023-12-31T00:58:31.910Z,100247.53
2023-12-31T01:00:58.957Z,100243.56
2023-12-31T01:03:25.885Z,100236.06
2023-12-31T01:05:52.826Z,100233.00
2023-12-31T01:08:19.741Z,100231.84
2023-12-31T01:10:46.737Z,100220.84
2023-12-31T01:13:13.658Z,100211.81
2023-12-31T01:15:40.652Z,100207.47
2023-12-31T01:18:07.517Z,100201.09
2023-12-31T01:20:34.401Z,100205.44
2023-12-31T01:23:01.787Z,100199.94
2023-12-31T01:25:28.880Z,100192.50
2023-12-31T01:27:56.961Z,100191.78
2023-12-31T01:30:25.039Z,100185.91
2023-12-31T01:32:52.459Z,100181.19
2023-12-31T01:35:22.195Z,100166.66
2023-12-31T01:37:49.349Z,100167.03
2023-12-31T01:40:16.434Z,100168.63
2023-12-31T01:42:45.862Z,100154.81
2023-12-31T01:45:12.797Z,100156.03
2023-12-31T01:47:39.890Z,100160.31
2023-12-31T01:50:08.508Z,100153.66
2023-12-31T01:52:35.810Z,100147.00
2023-12-31T01:55:06.965Z,100154.53
2023-12-31T01:57:34.494Z,100150.56
2023-12-31T02:00:05.206Z,100155.31
2023-12-31T02:02:43.784Z,100150.56
2023-12-31T02:05:12.628Z,100144.97
2023-12-31T02:07:39.894Z,100139.56
2023-12-31T02:10:07.364Z,100136.44
2023-12-31T02:12:34.662Z,100133.66
2023-12-31T02:15:01.606Z,100126.91
2023-12-31T02:17:28.564Z,100129.22
2023-12-31T02:19:55.603Z,100123.72
2023-12-31T02:22:22.736Z,100118.97
2023-12-31T02:24:52.572Z,100115.00
2023-12-31T02:27:19.551Z,100099.16
2023-12-31T02:29:46.503Z,100099.16
2023-12-31T02:32:13.337Z,100101.09
2023-12-31T02:34:45.993Z,100088.59
2023-12-31T02:37:13.049Z,100088.59
2023-12-31T02:39:40.028Z,100082.38
2023-12-31T02:42:06.974Z,100078.06
2023-12-31T02:44:33.806Z,100073.72
2023-12-31T02:47:00.728Z,100058.38
2023-12-31T02:49:27.794Z,100060.47
2023-12-31T02:51:54.793Z,100051.06
2023-12-31T02:54:21.657Z,100039.69
2023-12-31T02:56:48.529Z,100038.25
2023-12-31T02:59:15.424Z,100033.19
2023-12-31T03:01:42.417Z,100033.19
2023-12-31T03:04:09.563Z,100024.50
2023-12-31T03:06:40.209Z,100026.91
2023-12-31T03:09:07.924Z,100022.94
2023-12-31T03:11:37.931Z,100017.00
2023-12-31T03:14:04.896Z,99998.94
2023-12-31T03:16:31.829Z,100001.69
2023-12-31T03:18:58.767Z,100006.72
2023-12-31T03:21:25.796Z,99992.56
2023-12-31T03:23:53.018Z,99988.22
2023-12-31T03:26:20.273Z,99987.81
2023-12-31T03:28:47.116Z,99988.63
2023-12-31T03:31:14.754Z,99987.88
2023-12-31T03:33:47.432Z,99982.06
2023-12-31T03:36:16.080Z,99985.69
2023-12-31T03:38:45.536Z,99981.34
2023-12-31T03:41:12.483Z,99963.28
2023-12-31T03:43:39.378Z,99960.56
2023-12-31T03:46:07.010Z,99957.47
2023-12-31T03:48:33.968Z,99955.16
2023-12-31T03:51:00.955Z,99938.66
2023-12-31T03:53:27.811Z,99943.34
2023-12-31T03:55:55.927Z,99937.09
2023-12-31T03:58:23.359Z,99919.75
2023-12-31T04:00:50.282Z,99913.03
2023-12-31T04:03:17.440Z,99912.28
2023-12-31T04:05:44.400Z,99900.13
2023-12-31T04:08:11.295Z,99900.50
2023-12-31T04:10:38.613Z,99886.78
2023-12-31T04:13:05.792Z,99887.97
2023-12-31T04:15:32.830Z,99879.75
2023-12-31T04:18:00.761Z,99868.75
2023-12-31T04:20:27.791Z,99855.41
2023-12-31T04:22:55.064Z,99871.50
2023-12-31T04:25:22.254Z,99858.16
2023-12-31T04:27:49.175Z,99857.69
2023-12-31T04:30:16.182Z,99847.88
2023-12-31T04:32:43.560Z,99846.72
2023-12-31T04:35:10.590Z,99841.66
2023-12-31T04:37:37.609Z,99827.13
2023-12-31T04:40:07.084Z,99828.69
2023-12-31T04:42:33.979Z,99831.03
2023-12-31T04:45:06.597Z,99821.19
2023-12-31T04:47:33.722Z,99818.09
2023-12-31T04:50:00.711Z,99819.22
2023-12-31T04:52:27.761Z,99815.75
2023-12-31T04:54:54.666Z,99798.09
2023-12-31T04:57:21.982Z,99794.97
2023-12-31T04:59:48.805Z,99794.56
2023-12-31T05:02:15.943Z,99794.56
2023-12-31T05:04:43.010Z,99784.72
2023-12-31T05:07:10.794Z,99776.88
2023-12-31T05:09:38.145Z,99767.50
2023-12-31T05:12:05.449Z,99759.25
2023-12-31T05:14:32.375Z,99760.44
2023-12-31T05:16:59.279Z,99758.09
2023-12-31T05:19:26.304Z,99753.41
2023-12-31T05:21:53.356Z,99742.00
2023-12-31T05:24:20.191Z,99739.28
2023-12-31T05:26:47.409Z,99727.88
2023-12-31T05:29:14.373Z,99715.34
2023-12-31T05:31:41.823Z,99711.84
2023-12-31T05:34:08.817Z,99707.13
2023-12-31T05:36:35.790Z,99700.84
2023-12-31T05:39:02.957Z,99696.94
2023-12-31T05:41:29.821Z,99694.19
2023-12-31T05:43:57.348Z,99701.28
2023-12-31T05:46:24.425Z,99687.50
2023-12-31T05:48:51.440Z,99689.03
2023-12-31T05:51:18.604Z,99687.50
2023-12-31T05:53:45.444Z,99683.56
2023-12-31T05:56:12.330Z,99683.56
2023-12-31T05:58:43.455Z,99686.69
2023-12-31T06:01:12.258Z,99685.09
2023-12-31T06:03:39.641Z,99679.25
2023-12-31T06:06:06.714Z,99671.81
2023-12-31T06:08:34.650Z,99669.50
2023-12-31T06:11:01.561Z,99658.50
2023-12-31T06:13:28.423Z,99646.34
2023-12-31T06:15:55.662Z,99644.38
2023-12-31T06:18:22.796Z,99649.53
2023-12-31T06:20:49.693Z,99653.81
2023-12-31T06:23:16.942Z,99646.03
2023-12-31T06:25:43.842Z,99640.94
2023-12-31T06:28:10.881Z,99644.84
2023-12-31T06:30:38.328Z,99636.63
2023-12-31T06:33:06.163Z,99627.59
2023-12-31T06:35:33.314Z,99621.69
2023-12-31T06:38:00.193Z,99630.72
2023-12-31T06:40:27.203Z,99613.84
2023-12-31T06:42:54.086Z,99612.59
2023-12-31T06:45:20.910Z,99618.84
2023-12-31T06:47:47.755Z,99610.59
2023-12-31T06:50:14.701Z,99612.59
2023-12-31T06:52:41.696Z,99600.00
2023-12-31T06:55:11.773Z,99600.38
2023-12-31T06:57:38.760Z,99588.25
2023-12-31T07:00:07.312Z,99580.06
2023-12-31T07:02:34.282Z,99584.38
2023-12-31T07:05:01.389Z,99587.94
2023-12-31T07:07:28.386Z,99571.47
2023-12-31T07:09:55.272Z,99563.63
2023-12-31T07:12:22.557Z,99566.00
2023-12-31T07:14:49.463Z,99553.09
2023-12-31T07:17:16.295Z,99551.09
2023-12-31T07:19:43.149Z,99554.28
2023-12-31T07:22:10.171Z,99550.34
2023-12-31T07:24:37.436Z,99544.47
2023-12-31T07:27:06.282Z,99539.78
2023-12-31T07:29:33.615Z,99537.81
2023-12-31T07:32:00.595Z,99537.03
2023-12-31T07:34:27.576Z,99536.22
2023-12-31T07:36:54.572Z,99538.59
2023-12-31T07:39:21.477Z,99535.84
2023-12-31T07:41:48.396Z,99538.19
2023-12-31T07:44:21.957Z,99505.59
2023-12-31T07:46:49.039Z,99509.94
2023-12-31T07:49:15.913Z,99505.59
2023-12-31T07:51:42.913Z,99523.28
2023-12-31T07:54:09.845Z,99524.84
2023-12-31T07:56:36.667Z,99515.78
2023-12-31T07:59:04.632Z,99505.19
2023-12-31T08:01:31.533Z,99511.09
2023-12-31T08:03:58.389Z,99511.09
2023-12-31T08:06:25.489Z,99504.03
2023-12-31T08:08:52.631Z,99502.41
2023-12-31T08:11:21.732Z,99499.28
2023-12-31T08:13:51.469Z,99492.22
2023-12-31T08:16:20.499Z,99490.22
2023-12-31T08:18:47.753Z,99494.56
2023-12-31T08:21:14.659Z,99489.84
2023-12-31T08:23:42.562Z,99485.91
2023-12-31T08:26:11.128Z,99483.16
2023-12-31T08:28:38.291Z,99489.06
2023-12-31T08:31:05.364Z,99488.63
2023-12-31T08:33:32.451Z,99484.31
2023-12-31T08:35:59.276Z,99477.66
2023-12-31T08:38:26.114Z,99475.34
2023-12-31T08:40:53.119Z,99464.00
2023-12-31T08:43:20.924Z,99460.84
2023-12-31T08:45:47.951Z,99456.16
2023-12-31T08:48:15.200Z,99458.91
2023-12-31T08:50:42.373Z,99462.06
2023-12-31T08:53:09.590Z,99459.72
2023-12-31T08:55:36.738Z,99447.97
2023-12-31T08:58:03.808Z,99446.84
2023-12-31T09:00:31.654Z,99448.81
2023-12-31T09:02:59.911Z,99443.72
2023-12-31T09:05:27.267Z,99436.25
2023-12-31T09:07:54.258Z,99435.47
2023-12-31T09:10:21.178Z,99443.72
2023-12-31T09:12:48.611Z,99429.19
2023-12-31T09:15:15.529Z,99421.34
2023-12-31T09:17:42.410Z,99419.38
2023-12-31T09:20:10.160Z,99427.28
2023-12-31T09:22:37.737Z,99418.63
2023-12-31T09:25:07.454Z,99425.72
2023-12-31T09:27:35.143Z,99413.13
2023-12-31T09:30:02.143Z,99421.38
2023-12-31T09:32:29.151Z,99408.78
2023-12-31T09:34:56.273Z,99424.09
2023-12-31T09:37:25.224Z,99427.63
2023-12-31T09:39:52.229Z,99417.41
2023-12-31T09:42:34.505Z,99412.66
2023-12-31T09:45:04.669Z,99411.84
2023-12-31T09:47:34.008Z,99394.97
2023-12-31T09:50:02.540Z,99391.38
2023-12-31T09:52:33.024Z,99384.72
2023-12-31T09:55:02.009Z,99385.94
2023-12-31T09:57:34.433Z,99376.91
2023-12-31T10:00:05.751Z,99378.06
2023-12-31T10:02:37.749Z,99366.69
2023-12-31T10:05:06.187Z,99365.91
2023-12-31T10:07:33.862Z,99353.75
2023-12-31T10:10:02.020Z,99356.47
2023-12-31T10:12:29.182Z,99345.13
2023-12-31T10:14:56.196Z,99338.47
2023-12-31T10:17:23.324Z,99340.03
2023-12-31T10:19:50.520Z,99333.00
2023-12-31T10:22:17.436Z,99331.00
2023-12-31T10:24:44.368Z,99324.34
2023-12-31T10:27:12.982Z,99309.03
2023-12-31T10:29:40.018Z,99307.84
2023-12-31T10:32:07.455Z,99308.66
2023-12-31T10:34:37.344Z,99303.91
2023-12-31T10:37:07.342Z,99307.03
2023-12-31T10:39:38.114Z,99305.47
2023-12-31T10:42:06.959Z,99294.47
2023-12-31T10:44:37.886Z,99302.72
2023-12-31T10:47:07.011Z,99297.63
2023-12-31T10:49:35.404Z,99299.19
2023-12-31T10:52:04.657Z,99289.38
2023-12-31T10:54:44.326Z,99304.72
2023-12-31T10:57:12.056Z,99299.59
2023-12-31T10:59:43.027Z,99308.63
2023-12-31T11:02:18.009Z,99324.72
2023-12-31T11:04:54.188Z,99343.91
2023-12-31T11:07:22.002Z,99354.78
2023-12-31T11:09:52.544Z,99358.47
2023-12-31T11:12:20.214Z,99354.78
2023-12-31T11:14:54.537Z,99350.78
2023-12-31T11:17:39.481Z,99346.44
2023-12-31T11:21:01.228Z,99346.84
2023-12-31T11:23:58.068Z,99349.63
2023-12-31T11:26:25.720Z,99348.06
2023-12-31T11:28:55.273Z,99333.13
2023-12-31T11:31:22.798Z,99333.91
2023-12-31T11:33:51.185Z,99328.41
2023-12-31T11:36:18.641Z,99319.03
2023-12-31T11:38:57.781Z,99321.75
2023-12-31T11:41:26.349Z,99321.38
2023-12-31T11:43:53.831Z,99316.34
2023-12-31T11:46:41.639Z,99308.53
2023-12-31T11:49:10.687Z,99299.94
2023-12-31T11:51:54.423Z,99289.41
2023-12-31T11:54:22.537Z,99295.75
2023-12-31T11:56:49.892Z,99289.09
2023-12-31T11:59:17.381Z,99289.53
2023-12-31T12:01:44.924Z,99280.59
2023-12-31T12:04:12.876Z,99284.25
2023-12-31T12:06:41.257Z,99282.31
2023-12-31T12:09:08.254Z,99278.00
2023-12-31T12:11:35.239Z,99281.56
2023-12-31T12:14:02.930Z,99276.44
2023-12-31T12:16:30.136Z,99279.97
2023-12-31T12:19:01.466Z,99276.81
2023-12-31T12:21:29.130Z,99266.19
2023-12-31T12:23:56.001Z,99262.25
2023-12-31T12:26:23.698Z,99264.97
2023-12-31T12:28:57.284Z,99267.72
2023-12-31T12:31:24.469Z,99260.25
2023-12-31T12:33:55.432Z,99261.81
2023-12-31T12:36:22.825Z,99258.66
2023-12-31T12:38:50.174Z,99254.72
2023-12-31T12:41:23.637Z,99246.47
2023-12-31T12:44:10.930Z,99250.78
2023-12-31T12:46:37.983Z,99243.72
2023-12-31T12:49:05.525Z,99237.00
2023-12-31T12:51:34.897Z,99236.66
2023-12-31T12:54:04.056Z,99237.84
2023-12-31T12:56:31.112Z,99230.75
2023-12-31T12:58:58.375Z,99245.28
2023-12-31T13:01:26.790Z,99241.31
2023-12-31T13:03:54.431Z,99276.25
2023-12-31T13:06:21.321Z,99311.06
2023-12-31T13:08:48.498Z,99290.06
2023-12-31T13:11:15.443Z,99286.25
2023-12-31T13:13:42.816Z,99290.84
2023-12-31T13:16:16.118Z,99287.25
2023-12-31T13:18:50.157Z,99276.28
2023-12-31T13:21:17.248Z,99282.13
2023-12-31T13:23:44.502Z,99286.00
2023-12-31T13:26:11.989Z,99284.41
2023-12-31T13:28:40.084Z,99276.09
2023-12-31T13:31:07.428Z,99293.75
2023-12-31T13:33:34.549Z,99298.88
2023-12-31T13:36:01.604Z,99296.16
2023-12-31T13:38:28.485Z,99301.34
2023-12-31T13:40:57.117Z,99302.25
2023-12-31T13:43:24.298Z,99300.41
2023-12-31T13:45:51.332Z,99303.94
2023-12-31T13:48:19.645Z,99312.97
2023-12-31T13:50:47.112Z,99321.63
2023-12-31T13:53:15.690Z,99326.75
2023-12-31T13:55:43.368Z,99324.38
2023-12-31T13:58:10.566Z,99336.13
2023-12-31T14:00:37.812Z,99324.69
2023-12-31T14:03:07.985Z,99332.09
2023-12-31T14:05:36.193Z,99328.13
2023-12-31T14:08:03.522Z,99332.88
2023-12-31T14:10:31.349Z,99341.94
2023-12-31T14:12:59.243Z,99340.84
2023-12-31T14:15:31.621Z,99341.28
2023-12-31T14:17:59.801Z,99350.31
2023-12-31T14:20:27.441Z,99341.31
2023-12-31T14:22:54.361Z,99343.69
2023-12-31T14:25:21.297Z,99339.81
2023-12-31T14:27:48.263Z,99337.47
2023-12-31T14:30:15.432Z,99348.47
2023-12-31T14:32:42.900Z,99344.16
2023-12-31T14:35:13.074Z,99349.66
2023-12-31T14:37:40.118Z,99352.78
2023-12-31T14:40:08.035Z,99345.75
2023-12-31T14:42:35.074Z,99352.44
2023-12-31T14:45:01.972Z,99361.47
2023-12-31T14:47:28.894Z,99368.88
2023-12-31T14:49:56.115Z,99357.44
2023-12-31T14:52:23.360Z,99361.25
2023-12-31T14:54:50.345Z,99362.00
2023-12-31T14:57:17.646Z,99353.38
2023-12-31T14:59:44.631Z,99356.16
2023-12-31T15:02:21.907Z,99362.44
2023-12-31T15:04:55.291Z,99363.66
2023-12-31T15:07:27.505Z,99353.13
2023-12-31T15:09:54.398Z,99349.56
2023-12-31T15:12:21.282Z,99355.88
2023-12-31T15:14:51.019Z,99348.44
2023-12-31T15:17:18.039Z,99362.56
2023-12-31T15:19:45.637Z,99356.69
2023-12-31T15:22:12.582Z,99349.25
2023-12-31T15:24:39.483Z,99352.38
2023-12-31T15:27:06.362Z,99353.94
2023-12-31T15:29:33.225Z,99349.22
2023-12-31T15:32:00.655Z,99343.72
2023-12-31T15:34:29.053Z,99339.06
2023-12-31T15:36:56.005Z,99342.19
2023-12-31T15:39:24.353Z,99343.34
2023-12-31T15:41:51.431Z,99340.13
2023-12-31T15:44:18.662Z,99337.69
2023-12-31T15:46:45.726Z,99335.28
2023-12-31T15:49:13.039Z,99336.50
2023-12-31T15:51:40.166Z,99341.66
2023-12-31T15:54:07.032Z,99340.88
2023-12-31T15:56:33.958Z,99332.66
2023-12-31T15:59:01.023Z,99341.69
2023-12-31T16:01:27.975Z,99340.13
2023-12-31T16:03:55.080Z,99348.06
2023-12-31T16:06:22.522Z,99335.13
2023-12-31T16:08:49.494Z,99339.47
2023-12-31T16:11:17.920Z,99337.94
2023-12-31T16:13:45.002Z,99337.53
2023-12-31T16:16:12.725Z,99341.09
2023-12-31T16:18:39.883Z,99340.28
2023-12-31T16:21:06.992Z,99334.00
2023-12-31T16:23:33.941Z,99341.09
2023-12-31T16:26:01.213Z,99337.19
2023-12-31T16:28:28.423Z,99341.91
2023-12-31T16:30:55.716Z,99340.34
2023-12-31T16:33:23.855Z,99337.19
2023-12-31T16:35:52.164Z,99337.63
2023-12-31T16:38:19.481Z,99333.72
2023-12-31T16:40:46.490Z,99330.97
2023-12-31T16:43:13.486Z,99342.75
2023-12-31T16:45:40.491Z,99331.38
2023-12-31T16:48:08.338Z,99326.28
2023-12-31T16:50:36.285Z,99334.50
2023-12-31T16:53:03.251Z,99328.22
2023-12-31T16:55:30.360Z,99325.13
2023-12-31T16:57:57.298Z,99325.50
2023-12-31T17:00:25.098Z,99334.94
2023-12-31T17:02:52.869Z,99327.09
2023-12-31T17:05:20.331Z,99333.38
2023-12-31T17:07:47.365Z,99327.88
2023-12-31T17:10:14.374Z,99325.50
2023-12-31T17:12:41.726Z,99329.41
2023-12-31T17:15:14.950Z,99328.66
2023-12-31T17:17:42.232Z,99327.09
2023-12-31T17:20:09.721Z,99329.44
2023-12-31T17:22:36.927Z,99339.63
2023-12-31T17:25:05.809Z,99348.28
2023-12-31T17:27:33.338Z,99342.75
2023-12-31T17:30:01.679Z,99349.00
2023-12-31T17:32:29.092Z,99339.94
2023-12-31T17:34:56.030Z,99340.34
2023-12-31T17:37:23.381Z,99351.34
2023-12-31T17:39:50.698Z,99352.50
2023-12-31T17:42:18.376Z,99357.59
2023-12-31T17:44:45.801Z,99354.81
2023-12-31T17:47:13.101Z,99357.16
2023-12-31T17:49:40.364Z,99355.16
2023-12-31T17:52:07.317Z,99349.88
2023-12-31T17:54:34.569Z,99353.34
2023-12-31T17:57:01.518Z,99361.50
2023-12-31T17:59:28.478Z,99372.44
2023-12-31T18:01:57.348Z,99367.66
2023-12-31T18:04:24.423Z,99381.34
2023-12-31T18:06:51.553Z,99373.03
2023-12-31T18:09:18.642Z,99360.41
2023-12-31T18:11:45.545Z,99356.09
2023-12-31T18:14:12.400Z,99356.47
2023-12-31T18:16:42.918Z,99344.31
2023-12-31T18:19:10.261Z,99358.41
2023-12-31T18:21:37.162Z,99345.84
2023-12-31T18:24:04.194Z,99344.28
2023-12-31T18:26:32.312Z,99337.22
2023-12-31T18:28:59.371Z,99347.81
2023-12-31T18:31:26.348Z,99349.00
2023-12-31T18:33:53.316Z,99346.66
2023-12-31T18:36:20.479Z,99357.66
2023-12-31T18:38:48.604Z,99354.53
2023-12-31T18:41:15.493Z,99351.84
2023-12-31T18:43:42.416Z,99358.50
2023-12-31T18:46:09.415Z,99354.22
2023-12-31T18:48:36.438Z,99353.06
2023-12-31T18:51:03.532Z,99348.78
2023-12-31T18:53:30.421Z,99360.16
2023-12-31T18:55:57.711Z,99357.03
2023-12-31T18:58:24.658Z,99356.66
2023-12-31T19:00:51.629Z,99356.28
2023-12-31T19:03:18.571Z,99364.94
2023-12-31T19:05:45.569Z,99360.22
2023-12-31T19:08:12.603Z,99363.78
2023-12-31T19:10:39.528Z,99352.75
2023-12-31T19:13:06.436Z,99362.16
2023-12-31T19:15:33.390Z,99365.28
2023-12-31T19:18:00.557Z,99363.69
2023-12-31T19:20:27.609Z,99368.03
2023-12-31T19:22:54.438Z,99360.94
2023-12-31T19:25:23.152Z,99366.41
2023-12-31T19:27:52.928Z,99353.91
2023-12-31T19:30:20.215Z,99362.53
2023-12-31T19:32:47.335Z,99366.88
2023-12-31T19:35:14.554Z,99362.53
2023-12-31T19:37:41.554Z,99364.88
2023-12-31T19:40:09.122Z,99364.13
2023-12-31T19:42:36.061Z,99367.72
2023-12-31T19:45:03.007Z,99371.25
2023-12-31T19:47:29.870Z,99361.06
2023-12-31T19:49:59.513Z,99374.44
2023-12-31T19:52:29.118Z,99365.84
2023-12-31T19:54:56.053Z,99370.13
2023-12-31T19:57:22.946Z,99356.84
2023-12-31T19:59:51.365Z,99374.50
2023-12-31T20:02:19.076Z,99380.41
2023-12-31T20:04:46.315Z,99374.16
2023-12-31T20:07:13.370Z,99369.84
2023-12-31T20:09:42.545Z,99372.25
2023-12-31T20:12:09.761Z,99369.09
2023-12-31T20:14:38.229Z,99381.66
2023-12-31T20:17:06.917Z,99383.25
2023-12-31T20:19:34.159Z,99393.81
2023-12-31T20:22:01.278Z,99395.00
2023-12-31T20:24:28.153Z,99397.38
2023-12-31T20:26:54.994Z,99404.09
2023-12-31T20:29:21.974Z,99397.50
2023-12-31T20:31:50.709Z,99399.91
2023-12-31T20:34:17.730Z,99396.41
2023-12-31T20:36:44.630Z,99402.28
2023-12-31T20:39:11.583Z,99405.84
2023-12-31T20:41:38.518Z,99389.75
2023-12-31T20:44:05.695Z,99410.56
2023-12-31T20:46:34.445Z,99410.56
2023-12-31T20:49:01.710Z,99410.97
2023-12-31T20:51:28.738Z,99413.72
2023-12-31T20:53:55.730Z,99420.44
2023-12-31T20:56:22.606Z,99420.03
2023-12-31T20:58:49.581Z,99417.28
2023-12-31T21:01:17.821Z,99420.81
2023-12-31T21:03:46.226Z,99418.09
2023-12-31T21:06:13.449Z,99416.50
2023-12-31T21:08:40.620Z,99418.84
2023-12-31T21:11:08.050Z,99421.59
2023-12-31T21:13:38.489Z,99419.63
2023-12-31T21:16:07.141Z,99424.78
2023-12-31T21:18:34.249Z,99409.44
2023-12-31T21:21:01.407Z,99413.34
2023-12-31T21:23:28.337Z,99407.09
2023-12-31T21:25:55.354Z,99407.84
2023-12-31T21:28:26.015Z,99404.72
2023-12-31T21:30:53.336Z,99413.75
2023-12-31T21:33:20.392Z,99396.09
2023-12-31T21:35:47.447Z,99410.25
2023-12-31T21:38:14.581Z,99415.34
2023-12-31T21:40:41.670Z,99411.41
2023-12-31T21:43:08.659Z,99417.28
2023-12-31T21:45:35.969Z,99415.69
2023-12-31T21:48:05.075Z,99409.00
2023-12-31T21:50:32.342Z,99420.44
2023-12-31T21:52:59.481Z,99411.78
2023-12-31T21:55:38.814Z,99427.53
2023-12-31T21:58:13.854Z,99427.13
2023-12-31T22:00:42.818Z,99445.13
2023-12-31T22:03:09.764Z,99435.94
2023-12-31T22:05:37.147Z,99429.84
2023-12-31T22:08:06.413Z,99419.19
2023-12-31T22:10:33.647Z,99430.91
2023-12-31T22:13:00.616Z,99427.41
2023-12-31T22:15:30.202Z,99425.03
2023-12-31T22:17:57.640Z,99422.28
2023-12-31T22:20:24.788Z,99437.56
2023-12-31T22:22:51.787Z,99433.16
2023-12-31T22:25:18.876Z,99431.97
2023-12-31T22:27:45.658Z,99432.72
2023-12-31T22:30:12.840Z,99429.22
2023-12-31T22:32:39.784Z,99428.03
2023-12-31T22:35:07.247Z,99418.25
2023-12-31T22:37:34.893Z,99415.50
2023-12-31T22:40:02.484Z,99417.06
2023-12-31T22:42:29.380Z,99409.59
2023-12-31T22:44:56.303Z,99415.81
2023-12-31T22:47:23.213Z,99416.66
2023-12-31T22:49:50.141Z,99414.31
2023-12-31T22:52:17.052Z,99416.25
2023-12-31T22:54:44.132Z,99400.06
2023-12-31T22:57:11.166Z,99403.88
2023-12-31T22:59:38.637Z,99408.91
2023-12-31T23:02:05.604Z,99407.78
2023-12-31T23:04:32.616Z,99413.31
2023-12-31T23:06:59.521Z,99418.06
2023-12-31T23:09:26.632Z,99420.41
2023-12-31T23:11:53.521Z,99414.53
2023-12-31T23:14:21.166Z,99420.81
2023-12-31T23:16:49.262Z,99420.47
2023-12-31T23:19:36.214Z,99424.00
2023-12-31T23:22:03.218Z,99427.16
2023-12-31T23:24:30.066Z,99420.91
2023-12-31T23:26:57.232Z,99429.97
2023-12-31T23:29:24.092Z,99422.94
2023-12-31T23:31:51.056Z,99425.25
2023-12-31T23:34:18.063Z,99422.81
2023-12-31T23:36:50.846Z,99423.56
2023-12-31T23:39:25.169Z,99426.69
2023-12-31T23:41:52.262Z,99422.78
2023-12-31T23:44:22.159Z,99431.38
2023-12-31T23:46:50.583Z,99425.09
2023-12-31T23:49:17.469Z,99424.69
2023-12-31T23:51:44.401Z,99422.72
2023-12-31T23:54:11.259Z,99419.56
2023-12-31T23:56:38.254Z,99417.97
2023-12-31T23:59:05.593Z,99410.09
